sensor_id;sensor_type;location;lat;lon;timestamp;pressure;altitude;pressure_sealevel;temperature;humidity
55277;BME280;41136;51.478;-2.610;2023-06-22T00:01:42;100992.71;;;21.38;98.24
55277;BME280;41136;51.478;-2.610;2023-06-22T00:04:07;100993.49;;;21.59;97.69
55277;BME280;41136;51.478;-2.610;2023-06-22T00:06:32;100992.36;;;21.62;97.80
55277;BME280;41136;51.478;-2.610;2023-06-22T00:08:58;100992.22;;;21.51;98.03
55277;BME280;41136;51.478;-2.610;2023-06-22T00:11:23;100986.71;;;21.66;97.44
55277;BME280;41136;51.478;-2.610;2023-06-22T00:13:48;100985.17;;;21.41;97.46
55277;BME280;41136;51.478;-2.610;2023-06-22T00:16:14;100987.23;;;21.32;98.39
55277;BME280;41136;51.478;-2.610;2023-06-22T00:18:39;100988.21;;;21.87;97.23
55277;BME280;41136;51.478;-2.610;2023-06-22T00:21:04;100988.81;;;21.55;98.79
55277;BME280;41136;51.478;-2.610;2023-06-22T00:23:30;100994.46;;;21.81;97.29
55277;BME280;41136;51.478;-2.610;2023-06-22T00:25:55;100994.55;;;21.79;98.13
55277;BME280;41136;51.478;-2.610;2023-06-22T00:28:20;100997.95;;;21.99;97.18
55277;BME280;41136;51.478;-2.610;2023-06-22T00:30:46;100995.24;;;21.32;99.42
55277;BME280;41136;51.478;-2.610;2023-06-22T00:33:11;100998.93;;;20.64;100.00
55277;BME280;41136;51.478;-2.610;2023-06-22T00:35:36;100998.18;;;21.03;100.00
55277;BME280;41136;51.478;-2.610;2023-06-22T00:38:02;100997.30;;;20.73;100.00
55277;BME280;41136;51.478;-2.610;2023-06-22T00:40:27;100998.04;;;20.40;100.00
55277;BME280;41136;51.478;-2.610;2023-06-22T00:42:54;100997.70;;;20.82;100.00
55277;BME280;41136;51.478;-2.610;2023-06-22T00:45:18;100993.76;;;19.84;100.00
55277;BME280;41136;51.478;-2.610;2023-06-22T00:47:44;100993.80;;;20.65;100.00
55277;BME280;41136;51.478;-2.610;2023-06-22T00:50:15;100990.61;;;20.68;100.00
55277;BME280;41136;51.478;-2.610;2023-06-22T00:52:34;100986.89;;;20.50;100.00
55277;BME280;41136;51.478;-2.610;2023-06-22T00:54:59;100987.27;;;21.40;100.00
55277;BME280;41136;51.478;-2.610;2023-06-22T00:57:26;100986.15;;;20.24;100.00
55277;BME280;41136;51.478;-2.610;2023-06-22T00:59:50;100980.96;;;19.84;100.00
55277;BME280;41136;51.478;-2.610;2023-06-22T01:02:15;100982.53;;;20.20;100.00
55277;BME280;41136;51.478;-2.610;2023-06-22T01:04:41;100984.70;;;20.31;100.00
55277;BME280;41136;51.478;-2.610;2023-06-22T01:07:13;100988.68;;;21.15;100.00
55277;BME280;41136;51.478;-2.610;2023-06-22T01:09:38;100987.81;;;20.16;100.00
55277;BME280;41136;51.478;-2.610;2023-06-22T01:12:01;100991.32;;;20.47;100.00
55277;BME280;41136;51.478;-2.610;2023-06-22T01:14:27;100986.62;;;19.72;100.00
55277;BME280;41136;51.478;-2.610;2023-06-22T01:16:49;100987.02;;;19.76;100.00
55277;BME280;41136;51.478;-2.610;2023-06-22T01:19:27;100988.83;;;19.54;100.00
55277;BME280;41136;51.478;-2.610;2023-06-22T01:21:39;100989.67;;;19.75;100.00
55277;BME280;41136;51.478;-2.610;2023-06-22T01:24:14;100995.87;;;19.70;100.00
55277;BME280;41136;51.478;-2.610;2023-06-22T01:28:19;101004.81;;;19.98;100.00
55277;BME280;41136;51.478;-2.610;2023-06-22T01:30:33;101010.00;;;20.20;100.00
55277;BME280;41136;51.478;-2.610;2023-06-22T01:33:02;101011.89;;;20.67;100.00
55277;BME280;41136;51.478;-2.610;2023-06-22T01:38:24;101014.35;;;19.90;100.00
55277;BME280;41136;51.478;-2.610;2023-06-22T01:40:50;101011.80;;;19.92;100.00
55277;BME280;41136;51.478;-2.610;2023-06-22T01:43:15;101012.52;;;19.40;100.00
55277;BME280;41136;51.478;-2.610;2023-06-22T01:45:41;101008.96;;;20.13;100.00
55277;BME280;41136;51.478;-2.610;2023-06-22T01:48:07;101011.86;;;20.78;100.00
55277;BME280;41136;51.478;-2.610;2023-06-22T01:50:31;101011.74;;;20.99;100.00
55277;BME280;41136;51.478;-2.610;2023-06-22T01:52:56;101010.94;;;19.66;100.00
55277;BME280;41136;51.478;-2.610;2023-06-22T01:55:21;101010.98;;;19.53;100.00
55277;BME280;41136;51.478;-2.610;2023-06-22T01:57:46;101015.56;;;19.26;100.00
55277;BME280;41136;51.478;-2.610;2023-06-22T02:00:15;101012.94;;;19.91;100.00
55277;BME280;41136;51.478;-2.610;2023-06-22T02:02:43;101012.21;;;19.78;100.00
55277;BME280;41136;51.478;-2.610;2023-06-22T02:05:05;101006.94;;;19.99;100.00
55277;BME280;41136;51.478;-2.610;2023-06-22T02:07:31;101007.04;;;20.00;100.00
55277;BME280;41136;51.478;-2.610;2023-06-22T02:09:55;101007.54;;;19.68;100.00
55277;BME280;41136;51.478;-2.610;2023-06-22T02:12:22;101011.52;;;19.38;100.00
55277;BME280;41136;51.478;-2.610;2023-06-22T02:14:44;101014.61;;;19.13;100.00
55277;BME280;41136;51.478;-2.610;2023-06-22T02:17:11;101016.37;;;19.40;100.00
55277;BME280;41136;51.478;-2.610;2023-06-22T02:19:36;101017.19;;;19.29;100.00
55277;BME280;41136;51.478;-2.610;2023-06-22T02:22:01;101019.27;;;19.51;100.00
55277;BME280;41136;51.478;-2.610;2023-06-22T02:24:27;101017.96;;;19.31;100.00
55277;BME280;41136;51.478;-2.610;2023-06-22T02:26:52;101020.36;;;19.28;100.00
55277;BME280;41136;51.478;-2.610;2023-06-22T02:29:17;101019.67;;;19.61;100.00
55277;BME280;41136;51.478;-2.610;2023-06-22T02:31:43;101019.00;;;19.64;100.00
55277;BME280;41136;51.478;-2.610;2023-06-22T02:34:09;101018.44;;;19.10;100.00
55277;BME280;41136;51.478;-2.610;2023-06-22T02:36:34;101017.78;;;19.30;100.00
55277;BME280;41136;51.478;-2.610;2023-06-22T02:39:00;101018.76;;;19.22;100.00
55277;BME280;41136;51.478;-2.610;2023-06-22T02:41:25;101022.43;;;19.24;100.00
55277;BME280;41136;51.478;-2.610;2023-06-22T02:43:51;101026.58;;;19.01;100.00
55277;BME280;41136;51.478;-2.610;2023-06-22T02:46:16;101024.08;;;18.81;100.00
55277;BME280;41136;51.478;-2.610;2023-06-22T02:48:42;101025.85;;;18.99;100.00
55277;BME280;41136;51.478;-2.610;2023-06-22T02:51:08;101020.97;;;18.84;100.00
55277;BME280;41136;51.478;-2.610;2023-06-22T02:53:33;101019.72;;;19.30;100.00
55277;BME280;41136;51.478;-2.610;2023-06-22T02:55:58;101014.09;;;19.89;100.00
55277;BME280;41136;51.478;-2.610;2023-06-22T02:58:23;101020.03;;;19.45;100.00
55277;BME280;41136;51.478;-2.610;2023-06-22T03:00:48;101022.58;;;19.57;100.00
55277;BME280;41136;51.478;-2.610;2023-06-22T03:03:14;101017.92;;;19.55;100.00
55277;BME280;41136;51.478;-2.610;2023-06-22T03:05:39;101021.97;;;18.82;100.00
55277;BME280;41136;51.478;-2.610;2023-06-22T03:08:04;101024.57;;;19.67;100.00
55277;BME280;41136;51.478;-2.610;2023-06-22T03:10:30;101027.01;;;19.31;100.00
55277;BME280;41136;51.478;-2.610;2023-06-22T03:12:55;101027.14;;;19.95;100.00
55277;BME280;41136;51.478;-2.610;2023-06-22T03:15:21;101029.29;;;19.00;100.00
55277;BME280;41136;51.478;-2.610;2023-06-22T03:17:47;101028.03;;;19.16;100.00
55277;BME280;41136;51.478;-2.610;2023-06-22T03:20:12;101029.70;;;19.33;100.00
55277;BME280;41136;51.478;-2.610;2023-06-22T03:22:37;101032.54;;;19.57;100.00
55277;BME280;41136;51.478;-2.610;2023-06-22T03:25:03;101032.01;;;19.19;100.00
55277;BME280;41136;51.478;-2.610;2023-06-22T03:27:28;101030.22;;;19.50;100.00
55277;BME280;41136;51.478;-2.610;2023-06-22T03:29:53;101025.24;;;19.70;100.00
55277;BME280;41136;51.478;-2.610;2023-06-22T03:32:19;101020.16;;;19.89;100.00
55277;BME280;41136;51.478;-2.610;2023-06-22T03:34:45;101020.24;;;19.76;100.00
55277;BME280;41136;51.478;-2.610;2023-06-22T03:37:10;101022.49;;;19.17;100.00
55277;BME280;41136;51.478;-2.610;2023-06-22T03:39:36;101024.18;;;19.19;100.00
55277;BME280;41136;51.478;-2.610;2023-06-22T03:42:02;101027.54;;;18.98;100.00
55277;BME280;41136;51.478;-2.610;2023-06-22T03:44:27;101024.52;;;19.19;100.00
55277;BME280;41136;51.478;-2.610;2023-06-22T03:46:52;101019.43;;;19.81;100.00
55277;BME280;41136;51.478;-2.610;2023-06-22T03:49:18;101018.95;;;19.59;100.00
55277;BME280;41136;51.478;-2.610;2023-06-22T03:51:43;101018.68;;;20.07;100.00
55277;BME280;41136;51.478;-2.610;2023-06-22T03:54:09;101016.72;;;19.88;100.00
55277;BME280;41136;51.478;-2.610;2023-06-22T03:56:34;101022.42;;;19.63;100.00
55277;BME280;41136;51.478;-2.610;2023-06-22T03:58:59;101018.35;;;19.58;100.00
55277;BME280;41136;51.478;-2.610;2023-06-22T04:01:25;101021.27;;;19.86;100.00
55277;BME280;41136;51.478;-2.610;2023-06-22T04:03:51;101022.11;;;19.34;100.00
55277;BME280;41136;51.478;-2.610;2023-06-22T04:06:16;101024.01;;;18.93;100.00
55277;BME280;41136;51.478;-2.610;2023-06-22T04:08:42;101021.52;;;19.21;100.00
55277;BME280;41136;51.478;-2.610;2023-06-22T04:11:07;101022.96;;;19.62;100.00
55277;BME280;41136;51.478;-2.610;2023-06-22T04:13:32;101023.67;;;19.20;100.00
55277;BME280;41136;51.478;-2.610;2023-06-22T04:16:03;101027.08;;;19.10;100.00
55277;BME280;41136;51.478;-2.610;2023-06-22T04:18:23;101027.99;;;18.51;100.00
55277;BME280;41136;51.478;-2.610;2023-06-22T04:20:48;101024.19;;;19.14;100.00
55277;BME280;41136;51.478;-2.610;2023-06-22T04:23:13;101027.97;;;18.59;100.00
55277;BME280;41136;51.478;-2.610;2023-06-22T04:25:39;101026.79;;;18.99;100.00
55277;BME280;41136;51.478;-2.610;2023-06-22T04:30:48;101018.10;;;18.86;100.00
55277;BME280;41136;51.478;-2.610;2023-06-22T04:33:14;101021.94;;;18.23;100.00
55277;BME280;41136;51.478;-2.610;2023-06-22T04:39:22;101022.63;;;18.90;100.00
55277;BME280;41136;51.478;-2.610;2023-06-22T04:41:47;101021.76;;;18.85;100.00
55277;BME280;41136;51.478;-2.610;2023-06-22T04:44:13;101020.21;;;18.86;100.00
55277;BME280;41136;51.478;-2.610;2023-06-22T04:46:39;101019.21;;;18.87;100.00
55277;BME280;41136;51.478;-2.610;2023-06-22T04:49:04;101025.88;;;19.02;100.00
55277;BME280;41136;51.478;-2.610;2023-06-22T04:51:28;101028.76;;;19.30;100.00
55277;BME280;41136;51.478;-2.610;2023-06-22T04:53:54;101031.59;;;19.17;100.00
55277;BME280;41136;51.478;-2.610;2023-06-22T04:56:19;101033.53;;;18.44;100.00
55277;BME280;41136;51.478;-2.610;2023-06-22T04:58:44;101036.59;;;18.60;100.00
55277;BME280;41136;51.478;-2.610;2023-06-22T05:01:10;101036.84;;;19.18;100.00
55277;BME280;41136;51.478;-2.610;2023-06-22T05:03:35;101039.59;;;18.94;100.00
55277;BME280;41136;51.478;-2.610;2023-06-22T05:06:00;101040.32;;;18.62;100.00
55277;BME280;41136;51.478;-2.610;2023-06-22T05:08:26;101043.39;;;18.90;100.00
55277;BME280;41136;51.478;-2.610;2023-06-22T05:10:52;101044.12;;;18.40;100.00
55277;BME280;41136;51.478;-2.610;2023-06-22T05:13:17;101042.55;;;18.62;100.00
55277;BME280;41136;51.478;-2.610;2023-06-22T05:15:42;101040.64;;;18.66;100.00
55277;BME280;41136;51.478;-2.610;2023-06-22T05:18:08;101038.97;;;18.43;100.00
55277;BME280;41136;51.478;-2.610;2023-06-22T05:20:34;101039.74;;;18.84;100.00
55277;BME280;41136;51.478;-2.610;2023-06-22T05:22:59;101038.64;;;19.61;100.00
55277;BME280;41136;51.478;-2.610;2023-06-22T05:25:24;101035.24;;;19.29;100.00
55277;BME280;41136;51.478;-2.610;2023-06-22T05:27:49;101036.08;;;19.13;100.00
55277;BME280;41136;51.478;-2.610;2023-06-22T05:30:15;101035.52;;;19.39;100.00
55277;BME280;41136;51.478;-2.610;2023-06-22T05:32:41;101036.45;;;19.16;100.00
55277;BME280;41136;51.478;-2.610;2023-06-22T05:35:07;101039.51;;;19.53;100.00
55277;BME280;41136;51.478;-2.610;2023-06-22T05:37:31;101042.62;;;18.56;100.00
55277;BME280;41136;51.478;-2.610;2023-06-22T05:39:57;101047.33;;;19.55;100.00
55277;BME280;41136;51.478;-2.610;2023-06-22T05:42:23;101047.31;;;19.60;100.00
55277;BME280;41136;51.478;-2.610;2023-06-22T05:44:48;101047.86;;;19.56;100.00
55277;BME280;41136;51.478;-2.610;2023-06-22T05:47:13;101048.20;;;19.61;100.00
55277;BME280;41136;51.478;-2.610;2023-06-22T05:49:39;101047.10;;;19.61;100.00
55277;BME280;41136;51.478;-2.610;2023-06-22T05:52:05;101044.82;;;19.84;100.00
55277;BME280;41136;51.478;-2.610;2023-06-22T05:54:30;101047.81;;;19.36;100.00
55277;BME280;41136;51.478;-2.610;2023-06-22T05:56:55;101046.83;;;19.20;100.00
55277;BME280;41136;51.478;-2.610;2023-06-22T05:59:21;101050.15;;;19.93;100.00
55277;BME280;41136;51.478;-2.610;2023-06-22T06:01:46;101059.20;;;19.43;100.00
55277;BME280;41136;51.478;-2.610;2023-06-22T06:04:11;101063.20;;;19.28;100.00
55277;BME280;41136;51.478;-2.610;2023-06-22T06:06:36;101061.85;;;19.93;100.00
55277;BME280;41136;51.478;-2.610;2023-06-22T06:09:02;101060.10;;;20.11;100.00
55277;BME280;41136;51.478;-2.610;2023-06-22T06:11:27;101061.19;;;19.65;100.00
55277;BME280;41136;51.478;-2.610;2023-06-22T06:13:52;101057.89;;;19.94;100.00
55277;BME280;41136;51.478;-2.610;2023-06-22T06:16:18;101057.71;;;19.92;100.00
55277;BME280;41136;51.478;-2.610;2023-06-22T06:18:44;101057.66;;;19.51;100.00
55277;BME280;41136;51.478;-2.610;2023-06-22T06:21:09;101057.91;;;20.04;100.00
55277;BME280;41136;51.478;-2.610;2023-06-22T06:23:35;101059.99;;;20.34;100.00
55277;BME280;41136;51.478;-2.610;2023-06-22T06:26:00;101064.63;;;19.76;100.00
55277;BME280;41136;51.478;-2.610;2023-06-22T06:28:25;101064.47;;;19.39;100.00
55277;BME280;41136;51.478;-2.610;2023-06-22T06:30:51;101062.22;;;20.03;100.00
55277;BME280;41136;51.478;-2.610;2023-06-22T06:33:16;101059.85;;;20.31;100.00
55277;BME280;41136;51.478;-2.610;2023-06-22T06:35:42;101057.44;;;20.85;100.00
55277;BME280;41136;51.478;-2.610;2023-06-22T06:38:07;101061.61;;;20.28;100.00
55277;BME280;41136;51.478;-2.610;2023-06-22T06:40:32;101063.17;;;20.14;100.00
55277;BME280;41136;51.478;-2.610;2023-06-22T06:42:58;101066.68;;;19.09;100.00
55277;BME280;41136;51.478;-2.610;2023-06-22T06:45:24;101068.26;;;19.32;100.00
55277;BME280;41136;51.478;-2.610;2023-06-22T06:47:49;101071.66;;;19.80;100.00
55277;BME280;41136;51.478;-2.610;2023-06-22T06:50:14;101072.73;;;20.13;100.00
55277;BME280;41136;51.478;-2.610;2023-06-22T06:52:39;101078.99;;;19.84;100.00
55277;BME280;41136;51.478;-2.610;2023-06-22T06:55:06;101084.50;;;20.09;100.00
55277;BME280;41136;51.478;-2.610;2023-06-22T06:57:31;101088.64;;;20.44;100.00
55277;BME280;41136;51.478;-2.610;2023-06-22T06:59:56;101089.91;;;19.74;100.00
55277;BME280;41136;51.478;-2.610;2023-06-22T07:02:22;101090.51;;;19.31;100.00
55277;BME280;41136;51.478;-2.610;2023-06-22T07:04:47;101086.13;;;20.37;100.00
55277;BME280;41136;51.478;-2.610;2023-06-22T07:07:12;101086.46;;;20.04;100.00
55277;BME280;41136;51.478;-2.610;2023-06-22T07:09:38;101084.79;;;20.64;100.00
55277;BME280;41136;51.478;-2.610;2023-06-22T07:12:04;101083.46;;;19.41;100.00
55277;BME280;41136;51.478;-2.610;2023-06-22T07:14:29;101085.92;;;19.41;100.00
55277;BME280;41136;51.478;-2.610;2023-06-22T07:16:54;101084.16;;;19.57;100.00
55277;BME280;41136;51.478;-2.610;2023-06-22T07:19:24;101083.27;;;19.29;100.00
55277;BME280;41136;51.478;-2.610;2023-06-22T07:21:45;101081.76;;;20.23;100.00
55277;BME280;41136;51.478;-2.610;2023-06-22T07:24:10;101082.12;;;19.68;100.00
55277;BME280;41136;51.478;-2.610;2023-06-22T07:26:35;101082.67;;;19.96;100.00
55277;BME280;41136;51.478;-2.610;2023-06-22T07:29:01;101079.45;;;19.86;98.95
55277;BME280;41136;51.478;-2.610;2023-06-22T07:31:26;101079.44;;;21.64;96.21
55277;BME280;41136;51.478;-2.610;2023-06-22T07:33:51;101079.46;;;21.61;95.27
55277;BME280;41136;51.478;-2.610;2023-06-22T07:36:16;101074.75;;;22.11;92.15
55277;BME280;41136;51.478;-2.610;2023-06-22T07:38:42;101074.45;;;22.34;92.11
55277;BME280;41136;51.478;-2.610;2023-06-22T07:41:07;101074.48;;;22.36;91.77
55277;BME280;41136;51.478;-2.610;2023-06-22T07:43:32;101072.93;;;22.93;90.81
55277;BME280;41136;51.478;-2.610;2023-06-22T07:45:57;101072.65;;;22.53;89.42
55277;BME280;41136;51.478;-2.610;2023-06-22T07:48:23;101072.66;;;22.30;89.93
55277;BME280;41136;51.478;-2.610;2023-06-22T07:50:49;101066.48;;;23.03;87.40
55277;BME280;41136;51.478;-2.610;2023-06-22T07:53:14;101069.97;;;21.23;90.21
55277;BME280;41136;51.478;-2.610;2023-06-22T07:55:39;101073.04;;;21.12;92.84
55277;BME280;41136;51.478;-2.610;2023-06-22T07:58:04;101070.84;;;22.44;90.28
55277;BME280;41136;51.478;-2.610;2023-06-22T08:00:29;101075.86;;;22.03;89.58
55277;BME280;41136;51.478;-2.610;2023-06-22T08:02:55;101075.39;;;21.78;90.47
55277;BME280;41136;51.478;-2.610;2023-06-22T08:05:20;101071.04;;;21.98;89.16
55277;BME280;41136;51.478;-2.610;2023-06-22T08:07:45;101070.79;;;21.87;89.47
55277;BME280;41136;51.478;-2.610;2023-06-22T08:10:11;101073.04;;;21.51;89.21
55277;BME280;41136;51.478;-2.610;2023-06-22T08:12:36;101073.06;;;21.09;90.78
55277;BME280;41136;51.478;-2.610;2023-06-22T08:15:01;101069.00;;;21.93;90.42
55277;BME280;41136;51.478;-2.610;2023-06-22T08:17:26;101068.00;;;22.89;87.99
55277;BME280;41136;51.478;-2.610;2023-06-22T08:19:52;101072.47;;;21.71;90.35
55277;BME280;41136;51.478;-2.610;2023-06-22T08:22:17;101073.25;;;20.82;94.75
55277;BME280;41136;51.478;-2.610;2023-06-22T08:24:42;101071.42;;;20.78;94.31
55277;BME280;41136;51.478;-2.610;2023-06-22T08:27:07;101074.76;;;21.58;91.98
55277;BME280;41136;51.478;-2.610;2023-06-22T08:29:33;101071.11;;;22.00;91.55
55277;BME280;41136;51.478;-2.610;2023-06-22T08:31:58;101066.93;;;21.75;89.51
55277;BME280;41136;51.478;-2.610;2023-06-22T08:34:24;101067.61;;;22.17;90.20
55277;BME280;41136;51.478;-2.610;2023-06-22T08:36:49;101067.25;;;22.19;89.29
55277;BME280;41136;51.478;-2.610;2023-06-22T08:39:14;101063.13;;;22.87;87.19
55277;BME280;41136;51.478;-2.610;2023-06-22T08:41:40;101059.18;;;23.28;85.99
55277;BME280;41136;51.478;-2.610;2023-06-22T08:44:06;101058.88;;;23.45;85.23
55277;BME280;41136;51.478;-2.610;2023-06-22T08:46:31;101065.84;;;22.07;86.86
55277;BME280;41136;51.478;-2.610;2023-06-22T08:48:56;101064.07;;;22.81;86.00
55277;BME280;41136;51.478;-2.610;2023-06-22T08:51:21;101068.43;;;22.62;85.07
55277;BME280;41136;51.478;-2.610;2023-06-22T08:53:47;101071.16;;;23.19;85.05
55277;BME280;41136;51.478;-2.610;2023-06-22T08:56:12;101077.32;;;24.05;84.05
55277;BME280;41136;51.478;-2.610;2023-06-22T08:58:38;101080.55;;;23.67;81.95
55277;BME280;41136;51.478;-2.610;2023-06-22T09:01:04;101082.19;;;23.01;82.62
55277;BME280;41136;51.478;-2.610;2023-06-22T09:03:30;101083.36;;;23.30;81.28
55277;BME280;41136;51.478;-2.610;2023-06-22T09:05:55;101079.00;;;23.95;80.95
55277;BME280;41136;51.478;-2.610;2023-06-22T09:08:20;101079.14;;;23.81;81.23
55277;BME280;41136;51.478;-2.610;2023-06-22T09:10:46;101080.28;;;23.96;80.61
55277;BME280;41136;51.478;-2.610;2023-06-22T09:13:11;101082.80;;;23.48;83.04
55277;BME280;41136;51.478;-2.610;2023-06-22T09:15:36;101081.87;;;23.93;82.38
55277;BME280;41136;51.478;-2.610;2023-06-22T09:18:01;101089.51;;;23.52;83.06
55277;BME280;41136;51.478;-2.610;2023-06-22T09:20:27;101091.16;;;23.09;81.66
55277;BME280;41136;51.478;-2.610;2023-06-22T09:22:52;101091.90;;;23.09;83.07
55277;BME280;41136;51.478;-2.610;2023-06-22T09:25:17;101089.40;;;23.62;80.89
55277;BME280;41136;51.478;-2.610;2023-06-22T09:27:43;101088.64;;;23.64;80.18
55277;BME280;41136;51.478;-2.610;2023-06-22T09:30:08;101089.86;;;23.53;79.10
55277;BME280;41136;51.478;-2.610;2023-06-22T09:32:33;101089.49;;;23.38;81.61
55277;BME280;41136;51.478;-2.610;2023-06-22T09:35:02;101096.48;;;22.58;80.70
55277;BME280;41136;51.478;-2.610;2023-06-22T09:37:24;101097.47;;;22.30;82.51
55277;BME280;41136;51.478;-2.610;2023-06-22T09:39:49;101098.20;;;21.32;85.31
55277;BME280;41136;51.478;-2.610;2023-06-22T09:42:15;101094.69;;;22.46;84.17
55277;BME280;41136;51.478;-2.610;2023-06-22T09:44:40;101096.13;;;22.15;84.21
55277;BME280;41136;51.478;-2.610;2023-06-22T09:47:06;101092.16;;;23.28;83.58
55277;BME280;41136;51.478;-2.610;2023-06-22T09:49:30;101101.62;;;23.12;83.80
55277;BME280;41136;51.478;-2.610;2023-06-22T09:51:56;101102.27;;;23.48;81.11
55277;BME280;41136;51.478;-2.610;2023-06-22T09:54:22;101103.09;;;23.91;79.08
55277;BME280;41136;51.478;-2.610;2023-06-22T09:56:46;101097.21;;;24.36;78.88
55277;BME280;41136;51.478;-2.610;2023-06-22T09:59:12;101100.10;;;24.02;79.05
55277;BME280;41136;51.478;-2.610;2023-06-22T10:01:37;101100.66;;;24.89;76.56
55277;BME280;41136;51.478;-2.610;2023-06-22T10:04:03;101101.06;;;23.62;79.35
55277;BME280;41136;51.478;-2.610;2023-06-22T10:06:28;101097.77;;;23.60;79.17
55277;BME280;41136;51.478;-2.610;2023-06-22T10:08:53;101093.58;;;23.80;78.52
55277;BME280;41136;51.478;-2.610;2023-06-22T10:11:18;101095.92;;;24.04;77.40
55277;BME280;41136;51.478;-2.610;2023-06-22T10:13:43;101099.82;;;24.15;77.79
55277;BME280;41136;51.478;-2.610;2023-06-22T10:16:09;101099.38;;;24.19;74.34
55277;BME280;41136;51.478;-2.610;2023-06-22T10:18:34;101097.07;;;24.07;76.63
55277;BME280;41136;51.478;-2.610;2023-06-22T10:21:00;101098.92;;;23.74;78.59
55277;BME280;41136;51.478;-2.610;2023-06-22T10:23:24;101102.86;;;23.36;78.78
55277;BME280;41136;51.478;-2.610;2023-06-22T10:25:50;101113.31;;;22.67;81.84
55277;BME280;41136;51.478;-2.610;2023-06-22T10:28:15;101108.48;;;23.76;79.23
55277;BME280;41136;51.478;-2.610;2023-06-22T10:30:40;101107.69;;;24.49;75.96
55277;BME280;41136;51.478;-2.610;2023-06-22T10:33:05;101110.42;;;24.92;75.93
55277;BME280;41136;51.478;-2.610;2023-06-22T10:35:31;101111.32;;;25.01;72.69
55277;BME280;41136;51.478;-2.610;2023-06-22T10:37:56;101110.39;;;24.99;72.35
55277;BME280;41136;51.478;-2.610;2023-06-22T10:40:22;101114.07;;;25.06;73.21
55277;BME280;41136;51.478;-2.610;2023-06-22T10:42:47;101111.57;;;24.53;72.11
55277;BME280;41136;51.478;-2.610;2023-06-22T10:45:12;101111.46;;;25.15;70.07
55277;BME280;41136;51.478;-2.610;2023-06-22T10:47:37;101110.07;;;26.51;68.77
55277;BME280;41136;51.478;-2.610;2023-06-22T10:50:03;101109.53;;;25.68;66.52
55277;BME280;41136;51.478;-2.610;2023-06-22T10:52:28;101107.35;;;25.40;66.45
55277;BME280;41136;51.478;-2.610;2023-06-22T10:54:53;101110.74;;;25.44;66.58
55277;BME280;41136;51.478;-2.610;2023-06-22T10:57:19;101106.90;;;25.83;66.77
55277;BME280;41136;51.478;-2.610;2023-06-22T10:59:44;101108.58;;;25.72;66.30
55277;BME280;41136;51.478;-2.610;2023-06-22T11:02:09;101108.99;;;24.88;65.97
55277;BME280;41136;51.478;-2.610;2023-06-22T11:04:34;101108.17;;;25.32;65.85
55277;BME280;41136;51.478;-2.610;2023-06-22T11:06:59;101106.20;;;25.44;66.00
55277;BME280;41136;51.478;-2.610;2023-06-22T11:09:25;101103.56;;;25.54;66.14
55277;BME280;41136;51.478;-2.610;2023-06-22T11:11:52;101108.56;;;24.94;67.52
55277;BME280;41136;51.478;-2.610;2023-06-22T11:14:16;101107.98;;;24.25;67.07
55277;BME280;41136;51.478;-2.610;2023-06-22T11:16:41;101106.83;;;24.81;66.95
55277;BME280;41136;51.478;-2.610;2023-06-22T11:19:06;101104.98;;;23.54;69.26
55277;BME280;41136;51.478;-2.610;2023-06-22T11:21:31;101111.26;;;24.32;70.42
55277;BME280;41136;51.478;-2.610;2023-06-22T11:23:56;101106.60;;;24.24;69.38
55277;BME280;41136;51.478;-2.610;2023-06-22T11:26:22;101102.93;;;24.65;67.49
55277;BME280;41136;51.478;-2.610;2023-06-22T11:28:47;101102.96;;;24.99;65.82
55277;BME280;41136;51.478;-2.610;2023-06-22T11:31:13;101099.34;;;25.69;64.22
55277;BME280;41136;51.478;-2.610;2023-06-22T11:33:38;101102.74;;;24.75;65.24
55277;BME280;41136;51.478;-2.610;2023-06-22T11:36:03;101103.82;;;24.53;67.10
55277;BME280;41136;51.478;-2.610;2023-06-22T11:38:28;101100.94;;;24.70;65.49
55277;BME280;41136;51.478;-2.610;2023-06-22T11:40:54;101099.46;;;24.75;64.65
55277;BME280;41136;51.478;-2.610;2023-06-22T11:43:19;101095.45;;;25.37;64.67
55277;BME280;41136;51.478;-2.610;2023-06-22T11:45:44;101096.21;;;25.69;63.36
55277;BME280;41136;51.478;-2.610;2023-06-22T11:48:09;101091.21;;;25.24;62.50
55277;BME280;41136;51.478;-2.610;2023-06-22T11:50:35;101088.22;;;25.97;61.80
55277;BME280;41136;51.478;-2.610;2023-06-22T11:53:00;101089.55;;;24.75;62.32
55277;BME280;41136;51.478;-2.610;2023-06-22T11:55:25;101095.36;;;25.14;62.98
55277;BME280;41136;51.478;-2.610;2023-06-22T11:57:54;101090.52;;;26.14;60.79
55277;BME280;41136;51.478;-2.610;2023-06-22T12:00:16;101087.78;;;25.73;61.12
55277;BME280;41136;51.478;-2.610;2023-06-22T12:02:41;101090.07;;;25.62;62.51
55277;BME280;41136;51.478;-2.610;2023-06-22T12:05:07;101091.13;;;24.44;63.96
55277;BME280;41136;51.478;-2.610;2023-06-22T12:07:31;101086.22;;;25.76;62.64
55277;BME280;41136;51.478;-2.610;2023-06-22T12:09:56;101088.54;;;25.17;63.05
55277;BME280;41136;51.478;-2.610;2023-06-22T12:12:22;101082.88;;;25.33;61.08
55277;BME280;41136;51.478;-2.610;2023-06-22T12:14:47;101081.12;;;25.11;60.77
55277;BME280;41136;51.478;-2.610;2023-06-22T12:17:12;101077.57;;;25.46;60.81
55277;BME280;41136;51.478;-2.610;2023-06-22T12:19:37;101078.39;;;25.48;60.64
55277;BME280;41136;51.478;-2.610;2023-06-22T12:22:03;101075.45;;;26.39;59.07
55277;BME280;41136;51.478;-2.610;2023-06-22T12:24:28;101068.01;;;27.18;59.09
55277;BME280;41136;51.478;-2.610;2023-06-22T12:26:53;101075.59;;;26.52;59.13
55277;BME280;41136;51.478;-2.610;2023-06-22T12:29:18;101072.84;;;25.96;58.61
55277;BME280;41136;51.478;-2.610;2023-06-22T12:31:43;101076.43;;;25.79;61.73
55277;BME280;41136;51.478;-2.610;2023-06-22T12:34:09;101080.05;;;25.93;62.13
55277;BME280;41136;51.478;-2.610;2023-06-22T12:36:34;101081.04;;;26.09;63.90